Aérodrome :
LOGIN :

S'inscrire | Disclaimer

   EN    FR    IT 

 










Légende :    VFR   VFR Marginal   IFR   IFR Intensif   IFR Très Intensif
Visi : 
Plafond : 
>= 8 km
>= 3000ft
5 à 8 km
1000 à 3000 ft
1500m à 5 km
500 à 1000 ft
800 à 1500m
200 à 500 ft
< 800m
< 200 ft
Symboles :   Orages  Brouillard  Fortes neiges  Fortes précipitations  Vent > 20 kt
SIGMETs :   Divers  Orages  Givrage  Turbulence  Onde Orograph.  Cendres Volcan.







- Altitude de l'aérodrome : 16 ft
- Code IATA : EAS


LESO - San Sebastian Fuenterrabia

DERNIER METAR :
  • 291300Z 09004KT 060V120 9999 FEW022 22/16 Q1015

METARs EXPIRÉS :
  • 291230Z 10003KT 030V150 9999 FEW022 SCT067 23/18 Q1015
  • 291200Z 11006KT 070V150 9999 FEW012 BKN067 21/16 Q1015
  • 291130Z 10006KT 060V130 9999 FEW015 20/16 Q1016
  • 291100Z VRB01KT 9999 FEW013 BKN066 19/17 Q1016
  • 291030Z 09004KT 050V110 9999 FEW013 BKN066 19/17 Q1016

TAF TAF LESO
Valide du 29 à 12h jusqu'au 30 à 12h UTC


291100Z 2912/3012 32009KT 9999 SCT010 BKN020 TX20/2913Z TN15/2924Z
PROB40
TEMPO 2912/3012 3000 SHRA BKN010 SCT025TCU
PROB40
TEMPO 2912/2924 TS SCT020CB
PROB40
TEMPO 3000/3012 1500 BR BKN005
Pas de NOTAMs connus pour ce terrain.
3 SIGMETs publiés pour la FIR Madrid (LECM) :
 
Orages noyés dans la masse
LECM SIGMET 8 VALID 291300/291500 LEVA
LECM MADRID FIR/UIR EMBD TS OBS AT 1300Z N OF LINE N4110 W00210 - N41 W001 TOP FL360 STNR NC=
Orages noyés dans la masse
LECM SIGMET 7 VALID 291138/291400 LEVA
LECM MADRID FIR/UIR EMBD TS OBS AT 1138Z N OF LINE N4130 W00410 - N4130 W00220 TOP FL360 STNR NC=
Orages noyés dans la masse
LECM SIGMET 6 VALID 291015/291300 LEVA
LECM MADRID FIR/UIR EMBD TS OBS AT 1015Z WI N4250 W00040 - N4120 W00130 - N4130 W00240 - N4340 W002 TOP FL360 MOV N NC=



MET'MAP, la Météo Aéronautique d'un coup d'oeil ! - Copyright ORBIFLY Décembre 2007 - Disclaimer

ORBIFLY MET'MAP TEAM :

Programmation & Développement : Alexandra Zaïnal
Conception & Développement : Baudouin d'Aumeries
Co-Programmation & Développement : Marc-Olivier Méhu
Soutien technique & logistique : Manuel Goepfert

Contact : metmap@orbifly.com




SOURCES & CREDITS :

   NOAA